Contact Us / Support

Send an Email to the Site Administrator

Your Details

Subject

What is the altimeter for KSFO 101656Z 04004KT 10SM BKN180 14/08 A3001

Message